VCBI/CMB METAR and TAF weather

Enter ICAO airport designator
Station Type Date Time Source
VCBI METAR 2022/06/29 00:10 UTC NOAA

VCBI 290010Z 25007KT 220V310 9999 FEW016 28/24 Q1007 NOSIG


Station Type Date Time Source
VCBI Decoded METAR 2022/06/29 00:10 UTC NOAA

Katunayake, Sri Lanka (VCBI) 07-10N 079-53E 8M
Jun 28, 2022 - 08:10 PM EDT / 2022.06.29 0010 UTC
Wind: from the WSW (250 degrees) at 8 MPH (7 KT) (direction variable):0
Visibility: greater than 7 mile(s):0
Sky conditions: mostly clear
Temperature: 82 F (28 C)
Dew Point: 75 F (24 C)
Relative Humidity: 78%
Pressure (altimeter): 29.74 in. Hg (1007 hPa)
ob: VCBI 290010Z 25007KT 220V310 9999 FEW016 28/24 Q1007 NOSIG
cycle: 0

Station Type Date Time Source
VCBI TAF 2022/06/28 18:12 UTC NOAA

TAF TAF VCBI 281700Z 2818/2924 27007KT 9999 SCT016 TX32/2907Z TN26/2900Z

Example: see airport list